Time;durP1;ratioP1;P1;durP2;ratioP2;P2;SDS_P1;SDS_P2;PMS_P1;PMS_P2;Temp;Humidity;BMP_temperature;BMP_pressure;BME280_temperature;BME280_humidity;BME280_pressure;Samples;Min_cycle;Max_cycle;Signal;HPM_P1;HPM_P2
2021/10/13 00:01:28;;;;;;;9.73;8.73;;;8.70;99.90;;;;;;5012078;28;20286;-65
2021/10/13 00:03:53;;;;;;;9.60;8.60;;;8.60;99.90;;;;;;5012361;28;20229;-65
2021/10/13 00:06:19;;;;;;;10.60;9.60;;;8.60;99.90;;;;;;5012255;28;20210;-65
2021/10/13 00:08:44;;;;;;;12.63;9.63;;;8.60;99.90;;;;;;5011877;28;20199;-65
2021/10/13 00:11:10;;;;;;;10.43;9.43;;;8.50;99.90;;;;;;5012523;28;20179;-65
2021/10/13 00:13:36;;;;;;;11.23;10.00;;;8.50;99.90;;;;;;5012122;28;20186;-65
2021/10/13 00:16:01;;;;;;;12.60;10.00;;;8.40;99.90;;;;;;5012041;28;20183;-65
2021/10/13 00:18:27;;;;;;;9.83;8.30;;;8.40;99.90;;;;;;5011755;28;20209;-65
2021/10/13 00:20:52;;;;;;;10.40;9.40;;;8.50;99.90;;;;;;5011999;28;20189;-65
2021/10/13 00:23:18;;;;;;;9.57;8.67;;;8.50;99.90;;;;;;5011795;28;20650;-65
2021/10/13 00:25:43;;;;;;;10.20;9.07;;;8.40;99.90;;;;;;5011918;28;20179;-65
2021/10/13 00:28:09;;;;;;;9.33;8.43;;;8.40;99.90;;;;;;5011596;28;20201;-65
2021/10/13 00:30:34;;;;;;;10.10;9.07;;;8.20;99.90;;;;;;5011713;28;20254;-65
2021/10/13 00:33:00;;;;;;;11.13;10.03;;;8.20;99.90;;;;;;5012160;28;20179;-65
2021/10/13 00:35:26;;;;;;;13.80;9.80;;;8.20;99.90;;;;;;5012090;28;20174;-65
2021/10/13 00:37:51;;;;;;;12.20;9.07;;;8.10;99.90;;;;;;5011685;28;20218;-65
2021/10/13 00:40:17;;;;;;;10.50;9.50;;;8.10;99.90;;;;;;5011870;28;20218;-65
2021/10/13 00:42:42;;;;;;;9.90;8.90;;;8.20;99.90;;;;;;5011832;28;20213;-65
2021/10/13 00:45:08;;;;;;;12.10;9.97;;;8.20;99.90;;;;;;5011662;28;20241;-65
2021/10/13 00:47:34;;;;;;;11.00;9.30;;;8.20;99.90;;;;;;5011557;28;20667;-65
2021/10/13 00:50:00;;;;;;;13.10;9.20;;;8.20;99.90;;;;;;5010581;28;20175;-65
2021/10/13 00:52:26;;;;;;;10.30;9.20;;;8.20;99.90;;;;;;5011896;28;20806;-65
2021/10/13 00:54:51;;;;;;;15.13;10.20;;;8.10;99.90;;;;;;5011347;28;20449;-65
2021/10/13 00:57:17;;;;;;;9.87;8.83;;;8.20;99.90;;;;;;5011341;28;20641;-65
2021/10/13 00:59:42;;;;;;;9.27;8.37;;;8.20;99.90;;;;;;5011441;28;20249;-65
2021/10/13 01:02:12;;;;;;;9.93;8.63;;;8.10;99.90;;;;;;5011699;28;20576;-65
2021/10/13 01:05:06;;;;;;;12.10;8.83;;;8.10;99.90;;;;;;5011494;28;20179;-65
2021/10/13 01:07:51;;;;;;;9.73;8.73;;;8.00;99.90;;;;;;5011217;28;21023;-65
2021/10/13 01:10:32;;;;;;;14.07;9.53;;;8.00;99.90;;;;;;5015754;28;20807;-65
2021/10/13 01:13:05;;;;;;;10.97;9.90;;;8.10;99.90;;;;;;5015381;28;20435;-65
2021/10/13 01:15:57;;;;;;;9.67;8.60;;;8.20;99.90;;;;;;5015330;28;20516;-65
2021/10/13 01:18:29;;;;;;;11.37;8.73;;;8.20;99.90;;;;;;5012389;28;20544;-65
2021/10/13 01:21:19;;;;;;;9.40;7.80;;;8.20;99.90;;;;;;5015281;28;20429;-65
2021/10/13 01:24:13;;;;;;;11.73;8.93;;;8.30;99.90;;;;;;5015354;28;20434;-65
2021/10/13 01:27:05;;;;;;;11.13;9.87;;;8.40;99.90;;;;;;5015528;28;20895;-65
2021/10/13 01:29:36;;;;;;;10.60;8.67;;;8.50;99.90;;;;;;5015007;28;20495;-65
2021/10/13 01:32:12;;;;;;;10.77;9.10;;;8.50;99.90;;;;;;5014729;28;20499;-65
2021/10/13 01:34:43;;;;;;;10.23;8.70;;;8.60;99.90;;;;;;5014470;28;20432;-65
2021/10/13 01:37:19;;;;;;;10.57;9.50;;;8.60;99.90;;;;;;5014813;28;20532;-65
2021/10/13 01:39:48;;;;;;;10.03;9.07;;;8.60;99.90;;;;;;5014779;28;20443;-65
2021/10/13 01:42:16;;;;;;;10.57;7.97;;;8.60;99.90;;;;;;5014049;28;20492;-65
2021/10/13 01:44:47;;;;;;;9.70;8.80;;;8.60;99.90;;;;;;5015000;28;20465;-65
2021/10/13 01:47:16;;;;;;;11.73;9.47;;;8.60;99.90;;;;;;5014745;28;20440;-65
2021/10/13 01:49:42;;;;;;;14.20;9.23;;;8.50;99.90;;;;;;5014631;28;20449;-65
2021/10/13 01:52:08;;;;;;;9.80;7.97;;;8.60;99.90;;;;;;5014769;28;20480;-65
2021/10/13 01:54:37;;;;;;;9.67;7.77;;;8.70;99.90;;;;;;5014647;28;20940;-65
2021/10/13 01:57:04;;;;;;;10.40;8.57;;;8.80;99.90;;;;;;5014393;28;20943;-65
2021/10/13 01:59:31;;;;;;;10.20;7.70;;;8.80;99.90;;;;;;5014180;28;21074;-65
2021/10/13 02:01:59;;;;;;;10.00;8.30;;;8.70;99.90;;;;;;5014683;28;20457;-65
2021/10/13 02:04:26;;;;;;;8.03;7.27;;;8.80;99.90;;;;;;5014542;28;20434;-65
2021/10/13 02:06:53;;;;;;;7.63;6.90;;;8.70;99.90;;;;;;5014187;28;20429;-65
2021/10/13 02:09:26;;;;;;;10.63;7.33;;;8.70;99.90;;;;;;5012980;28;20445;-65
2021/10/13 02:11:55;;;;;;;12.70;6.63;;;8.70;99.90;;;;;;5014679;28;20436;-65
2021/10/13 02:14:22;;;;;;;8.40;7.50;;;8.70;99.90;;;;;;5014346;28;20771;-65
2021/10/13 02:16:49;;;;;;;8.90;7.83;;;8.80;99.90;;;;;;5014039;28;20437;-65
2021/10/13 02:19:18;;;;;;;10.13;8.07;;;8.70;99.90;;;;;;5013724;28;20491;-65
2021/10/13 02:21:47;;;;;;;9.03;8.00;;;8.80;99.90;;;;;;5014031;28;20544;-65
2021/10/13 02:24:17;;;;;;;9.33;8.33;;;8.80;99.90;;;;;;5014406;28;20429;-65
2021/10/13 02:26:46;;;;;;;8.67;7.77;;;8.80;99.90;;;;;;5014083;28;20438;-65
2021/10/13 02:29:14;;;;;;;8.07;7.27;;;8.90;99.90;;;;;;5013825;28;20453;-65
2021/10/13 02:31:41;;;;;;;7.93;7.13;;;8.90;99.90;;;;;;5014076;28;20974;-65
2021/10/13 02:34:07;;;;;;;9.80;7.93;;;8.90;99.90;;;;;;5013845;28;20462;-65
2021/10/13 02:36:32;;;;;;;10.47;8.40;;;8.90;99.90;;;;;;5013698;28;20969;-65
2021/10/13 02:38:58;;;;;;;11.57;8.50;;;8.80;99.90;;;;;;5013576;28;20217;-66
2021/10/13 02:41:25;;;;;;;9.47;7.67;;;8.80;99.90;;;;;;5013700;28;20257;-65
2021/10/13 02:43:50;;;;;;;10.80;8.53;;;8.80;99.90;;;;;;5013566;28;20939;-65
2021/10/13 02:46:23;;;;;;;10.00;7.03;;;8.90;99.90;;;;;;5013315;28;20469;-65
2021/10/13 02:49:01;;;;;;;11.17;8.70;;;8.90;99.90;;;;;;5013003;28;20617;-65
2021/10/13 02:51:56;;;;;;;8.30;6.90;;;9.00;99.90;;;;;;5013586;28;20441;-65
2021/10/13 02:55:02;;;;;;;9.00;7.67;;;8.90;99.90;;;;;;4999515;28;20962;-65
2021/10/13 02:57:40;;;;;;;8.47;7.67;;;8.90;99.90;;;;;;5012744;28;20444;-65
2021/10/13 03:00:06;;;;;;;8.83;7.93;;;8.90;99.90;;;;;;5013363;28;20434;-65
2021/10/13 03:02:49;;;;;;;8.43;7.63;;;8.90;99.90;;;;;;5013439;28;20465;-65
2021/10/13 03:05:18;;;;;;;11.43;9.07;;;9.00;99.90;;;;;;5011731;28;20441;-65
2021/10/13 03:07:45;;;;;;;9.20;8.37;;;9.00;99.90;;;;;;5011832;28;20453;-65
2021/10/13 03:10:12;;;;;;;9.80;8.80;;;9.00;99.90;;;;;;4997944;28;20457;-65
2021/10/13 03:12:41;;;;;;;8.80;7.90;;;8.90;99.90;;;;;;5013371;28;20445;-65
2021/10/13 03:15:09;;;;;;;9.80;8.30;;;8.90;99.90;;;;;;5012578;28;20463;-65
2021/10/13 03:17:35;;;;;;;10.03;9.00;;;9.00;99.90;;;;;;5012882;28;20958;-65
2021/10/13 03:20:01;;;;;;;9.03;7.70;;;8.90;99.90;;;;;;5019509;28;20452;-65
2021/10/13 03:22:27;;;;;;;11.30;8.20;;;8.90;99.90;;;;;;5020143;28;20476;-65
2021/10/13 03:24:53;;;;;;;10.10;7.50;;;8.90;99.90;;;;;;5018153;28;20944;-65
2021/10/13 03:27:22;;;;;;;10.53;8.17;;;8.90;99.90;;;;;;5012827;28;20529;-65
2021/10/13 03:29:48;;;;;;;9.23;8.33;;;8.80;99.90;;;;;;5013896;28;20182;-65
2021/10/13 03:32:17;;;;;;;8.83;7.93;;;8.90;99.90;;;;;;5015786;28;20445;-65
2021/10/13 03:34:43;;;;;;;9.83;8.80;;;8.80;99.90;;;;;;5021017;28;20629;-65
2021/10/13 03:37:09;;;;;;;10.43;8.47;;;8.80;99.90;;;;;;5018450;28;20471;-65
2021/10/13 03:39:34;;;;;;;10.20;9.20;;;8.80;99.90;;;;;;5016402;28;20219;-65
2021/10/13 03:42:01;;;;;;;10.30;9.30;;;8.80;99.90;;;;;;5016231;28;20219;-65
2021/10/13 03:44:27;;;;;;;10.20;9.10;;;8.80;99.90;;;;;;5013831;28;20206;-65
2021/10/13 03:46:52;;;;;;;12.67;9.43;;;8.90;99.90;;;;;;5012580;28;20430;-65
2021/10/13 03:49:18;;;;;;;10.00;7.80;;;8.90;99.90;;;;;;5013563;28;20194;-65
2021/10/13 03:51:43;;;;;;;11.60;9.20;;;8.90;99.90;;;;;;5019913;28;20179;-65
2021/10/13 03:54:09;;;;;;;15.13;8.60;;;8.80;99.90;;;;;;5012615;28;20256;-65
2021/10/13 03:56:35;;;;;;;10.20;9.20;;;8.80;99.90;;;;;;5013022;28;20183;-65
2021/10/13 03:59:00;;;;;;;10.63;8.70;;;8.70;99.90;;;;;;5020453;28;20206;-65
2021/10/13 04:01:26;;;;;;;11.03;9.27;;;8.80;99.90;;;;;;5012313;28;20282;-65
2021/10/13 04:03:52;;;;;;;10.93;8.30;;;8.80;99.90;;;;;;5013561;28;20183;-65
2021/10/13 04:06:18;;;;;;;10.00;8.57;;;8.80;99.90;;;;;;5012250;28;20966;-65
2021/10/13 04:08:43;;;;;;;11.40;8.47;;;8.80;99.90;;;;;;5011672;28;20191;-65
2021/10/13 04:11:09;;;;;;;9.50;7.83;;;8.80;99.90;;;;;;5012365;28;20261;-65
2021/10/13 04:13:34;;;;;;;13.80;11.20;;;8.70;99.90;;;;;;5012373;28;20205;-65
2021/10/13 04:16:00;;;;;;;11.60;9.30;;;8.60;99.90;;;;;;5012095;28;20187;-65
2021/10/13 04:18:25;;;;;;;10.47;9.27;;;8.60;99.90;;;;;;5011951;28;20218;-65
2021/10/13 04:20:51;;;;;;;12.47;10.43;;;8.60;99.90;;;;;;5012050;28;20195;-65
2021/10/13 04:23:17;;;;;;;13.37;9.50;;;8.70;99.90;;;;;;5011786;28;20249;-65
2021/10/13 04:25:43;;;;;;;10.30;9.30;;;8.80;99.90;;;;;;5012059;28;20237;-65
2021/10/13 04:28:09;;;;;;;11.43;9.60;;;8.80;99.90;;;;;;5011861;28;20533;-65
2021/10/13 04:30:37;;;;;;;11.17;8.03;;;8.90;99.90;;;;;;5011965;28;20529;-65
2021/10/13 04:33:03;;;;;;;9.17;8.27;;;8.90;99.90;;;;;;5012229;28;20182;-65
2021/10/13 04:35:29;;;;;;;13.33;9.40;;;8.90;99.90;;;;;;5012053;28;20484;-65
2021/10/13 04:37:55;;;;;;;9.50;8.50;;;8.90;99.90;;;;;;5011200;28;20525;-65
2021/10/13 04:40:20;;;;;;;9.03;8.13;;;8.90;99.90;;;;;;5011944;28;20175;-65
2021/10/13 04:42:46;;;;;;;11.60;9.20;;;8.80;99.90;;;;;;5011751;28;20563;-65
2021/10/13 04:45:12;;;;;;;13.07;9.90;;;8.80;99.90;;;;;;5011860;28;20175;-65
2021/10/13 04:47:37;;;;;;;11.00;9.00;;;8.70;99.90;;;;;;5011769;28;20190;-65
2021/10/13 04:50:04;;;;;;;11.97;9.90;;;8.70;99.90;;;;;;5011662;28;20438;-65
2021/10/13 04:52:29;;;;;;;13.93;10.13;;;8.60;99.90;;;;;;5011790;28;20182;-66
2021/10/13 04:54:55;;;;;;;14.50;11.77;;;8.60;99.90;;;;;;5011909;28;20441;-65
2021/10/13 04:57:20;;;;;;;13.93;10.30;;;8.50;99.90;;;;;;5011573;28;20287;-65
2021/10/13 04:59:46;;;;;;;16.47;9.60;;;8.50;99.90;;;;;;5011472;28;20668;-65
2021/10/13 05:02:12;;;;;;;12.40;11.10;;;8.50;99.90;;;;;;5011809;28;20222;-65
2021/10/13 05:04:37;;;;;;;14.70;10.37;;;8.50;99.90;;;;;;5011285;28;20993;-65
2021/10/13 05:07:03;;;;;;;10.90;9.77;;;8.60;99.90;;;;;;5011606;28;20241;-65
2021/10/13 05:09:28;;;;;;;16.53;11.67;;;8.60;99.90;;;;;;5011810;28;20245;-65
2021/10/13 05:11:54;;;;;;;16.50;11.33;;;8.60;99.90;;;;;;5011499;28;20191;-64
2021/10/13 05:14:19;;;;;;;16.10;12.30;;;8.50;99.90;;;;;;5011657;28;20703;-64
2021/10/13 05:16:45;;;;;;;17.07;12.40;;;8.40;99.90;;;;;;5011520;28;20183;-64
2021/10/13 05:19:10;;;;;;;16.13;12.60;;;8.30;99.90;;;;;;5011087;28;20199;-64
2021/10/13 05:21:36;;;;;;;16.13;12.97;;;8.30;99.90;;;;;;5010962;28;20194;-64
2021/10/13 05:24:02;;;;;;;14.97;11.90;;;8.20;99.90;;;;;;5011501;28;20210;-64
2021/10/13 05:26:28;;;;;;;19.60;11.87;;;8.30;99.90;;;;;;5011573;28;20167;-65
2021/10/13 05:28:54;;;;;;;13.93;10.17;;;8.20;99.90;;;;;;5011032;28;20456;-64
2021/10/13 05:31:19;;;;;;;14.57;11.70;;;8.10;99.90;;;;;;5011333;28;20183;-64
2021/10/13 05:33:45;;;;;;;19.20;11.77;;;8.10;99.90;;;;;;5011431;28;20433;-64
2021/10/13 05:36:11;;;;;;;15.77;12.53;;;8.00;99.90;;;;;;5011276;28;20205;-65
2021/10/13 05:38:36;;;;;;;16.73;12.17;;;8.00;99.90;;;;;;5010819;28;20664;-64
2021/10/13 05:41:02;;;;;;;16.30;13.20;;;7.90;99.90;;;;;;5011819;28;20266;-64
2021/10/13 05:43:28;;;;;;;19.13;12.17;;;7.80;99.90;;;;;;5011332;28;20183;-64
2021/10/13 05:45:54;;;;;;;18.00;13.10;;;7.90;99.90;;;;;;5006816;28;20460;-64
2021/10/13 05:48:20;;;;;;;20.37;13.23;;;7.90;99.90;;;;;;5007093;28;20905;-64
2021/10/13 05:50:46;;;;;;;19.17;12.37;;;7.80;99.90;;;;;;5011027;28;20232;-66
2021/10/13 05:53:12;;;;;;;16.90;13.53;;;7.90;99.90;;;;;;5010561;28;20607;-67
2021/10/13 05:55:37;;;;;;;16.10;14.23;;;7.90;99.90;;;;;;5013568;28;20422;-64
2021/10/13 05:58:05;;;;;;;17.43;13.63;;;8.00;99.90;;;;;;5014458;28;20290;-64
2021/10/13 06:00:31;;;;;;;16.87;12.73;;;8.10;99.90;;;;;;5014643;28;20175;-65
2021/10/13 06:02:58;;;;;;;17.70;12.97;;;8.10;99.90;;;;;;5013867;28;20468;-64
2021/10/13 06:05:27;;;;;;;16.70;12.57;;;8.20;99.90;;;;;;5014567;28;20174;-64
2021/10/13 06:07:53;;;;;;;17.10;11.70;;;8.30;99.90;;;;;;5013943;28;20484;-64
2021/10/13 06:10:19;;;;;;;17.80;13.20;;;8.20;99.90;;;;;;5014509;28;20426;-64
2021/10/13 06:12:44;;;;;;;15.07;12.23;;;8.30;99.90;;;;;;5010851;28;20858;-65
2021/10/13 06:15:11;;;;;;;20.60;13.20;;;8.20;99.90;;;;;;5013167;28;20221;-65
2021/10/13 06:17:36;;;;;;;18.10;12.50;;;8.30;99.90;;;;;;5012719;28;20207;-64
2021/10/13 06:20:02;;;;;;;20.40;12.40;;;8.20;99.90;;;;;;4986782;28;20938;-67
2021/10/13 06:22:28;;;;;;;19.23;12.97;;;8.30;99.90;;;;;;4999292;28;20199;-65
2021/10/13 06:24:55;;;;;;;18.20;12.97;;;8.40;99.90;;;;;;5013562;28;20428;-64
2021/10/13 06:27:20;;;;;;;17.90;12.47;;;8.50;99.90;;;;;;5013059;28;20166;-66
2021/10/13 06:29:46;;;;;;;16.40;12.70;;;8.60;99.90;;;;;;5009917;28;20440;-64
2021/10/13 06:32:11;;;;;;;17.30;12.63;;;8.50;99.90;;;;;;5012824;28;20178;-64
2021/10/13 06:34:37;;;;;;;17.03;11.87;;;8.50;99.90;;;;;;5013567;28;20187;-64
2021/10/13 06:37:02;;;;;;;15.53;11.57;;;8.40;99.90;;;;;;5012741;28;20262;-64
2021/10/13 06:39:28;;;;;;;14.33;10.87;;;8.40;99.90;;;;;;5009488;28;20217;-65
2021/10/13 06:41:53;;;;;;;19.33;11.90;;;8.40;99.90;;;;;;5012219;28;20207;-63
2021/10/13 06:44:19;;;;;;;16.50;11.67;;;8.60;99.90;;;;;;5006988;28;20716;-65
2021/10/13 06:46:45;;;;;;;14.33;10.30;;;8.70;99.90;;;;;;5010103;28;20190;-66
2021/10/13 06:49:11;;;;;;;14.20;10.77;;;8.90;99.90;;;;;;5004713;28;20700;-66
2021/10/13 06:51:36;;;;;;;15.83;11.47;;;9.00;99.90;;;;;;5008888;28;20445;-64
2021/10/13 06:54:02;;;;;;;17.03;13.30;;;9.10;99.90;;;;;;5009649;28;20186;-64
2021/10/13 06:56:28;;;;;;;15.20;11.33;;;9.30;99.90;;;;;;5009308;28;20441;-64
2021/10/13 06:58:53;;;;;;;11.00;9.63;;;9.40;99.90;;;;;;5006030;28;20207;-64
2021/10/13 07:01:19;;;;;;;15.87;10.20;;;9.40;99.90;;;;;;5007345;28;20191;-64
2021/10/13 07:03:45;;;;;;;12.77;9.53;;;9.40;99.90;;;;;;5008665;28;20672;-65
2021/10/13 07:06:11;;;;;;;13.60;8.93;;;9.40;99.90;;;;;;5007963;28;20246;-70
2021/10/13 07:08:36;;;;;;;11.60;9.40;;;9.30;99.90;;;;;;5005516;28;20712;-66
2021/10/13 07:11:02;;;;;;;12.00;9.57;;;9.30;99.90;;;;;;5008822;28;20170;-65
2021/10/13 07:13:27;;;;;;;10.20;9.00;;;9.00;99.90;;;;;;5009103;28;20171;-65
2021/10/13 07:15:53;;;;;;;13.70;10.03;;;9.10;99.90;;;;;;5009492;28;20178;-65
2021/10/13 07:18:18;;;;;;;11.83;9.73;;;9.10;99.90;;;;;;5007680;28;20202;-69
2021/10/13 07:20:44;;;;;;;12.60;10.10;;;8.90;99.90;;;;;;5007980;28;20175;-67
2021/10/13 07:23:10;;;;;;;11.23;9.57;;;9.10;99.90;;;;;;5009332;28;20199;-68
2021/10/13 07:25:35;;;;;;;16.17;9.30;;;9.10;99.90;;;;;;5008013;28;20232;-66
2021/10/13 07:28:02;;;;;;;13.13;10.10;;;9.00;99.90;;;;;;5008922;28;20199;-65
2021/10/13 07:30:30;;;;;;;14.57;9.87;;;9.20;99.90;;;;;;5007144;28;20174;-66
2021/10/13 07:32:55;;;;;;;12.83;9.90;;;9.20;99.90;;;;;;5011646;28;20950;-65
2021/10/13 07:35:22;;;;;;;14.67;10.37;;;9.30;99.90;;;;;;5012040;28;20434;-65
2021/10/13 07:37:48;;;;;;;15.10;11.13;;;9.30;99.90;;;;;;5024660;28;20214;-66
2021/10/13 07:40:14;;;;;;;14.30;10.90;;;9.30;99.90;;;;;;5008769;28;20437;-65
2021/10/13 07:42:40;;;;;;;15.57;11.10;;;9.40;99.90;;;;;;5011584;28;21011;-67
2021/10/13 07:45:07;;;;;;;17.17;9.60;;;9.40;99.90;;;;;;5005305;28;20194;-65
2021/10/13 07:47:32;;;;;;;15.70;11.17;;;9.70;99.90;;;;;;5008484;28;20198;-65
2021/10/13 07:49:58;;;;;;;11.57;9.80;;;10.10;99.90;;;;;;5005704;28;20441;-65
2021/10/13 07:52:24;;;;;;;10.53;9.20;;;10.80;99.90;;;;;;5007915;28;20186;-66
2021/10/13 07:54:49;;;;;;;12.17;9.07;;;11.60;99.90;;;;;;5009450;28;20178;-66
2021/10/13 07:57:15;;;;;;;10.17;9.07;;;12.20;99.90;;;;;;5013506;28;20460;-65
2021/10/13 07:59:40;;;;;;;10.57;9.30;;;12.50;99.90;;;;;;5007636;28;20202;-66
2021/10/13 08:02:06;;;;;;;11.43;9.50;;;12.80;99.90;;;;;;5011414;28;20202;-66
2021/10/13 08:04:32;;;;;;;9.67;8.30;;;12.80;99.90;;;;;;5011902;28;20590;-67
2021/10/13 08:06:57;;;;;;;13.90;8.47;;;12.90;99.90;;;;;;5011744;28;20520;-65
2021/10/13 08:09:23;;;;;;;13.90;8.73;;;13.30;99.90;;;;;;5008606;28;20194;-66
2021/10/13 08:11:48;;;;;;;13.13;7.87;;;14.10;99.90;;;;;;5010352;28;20234;-66
2021/10/13 08:14:14;;;;;;;10.57;8.30;;;14.80;99.90;;;;;;5011773;28;20193;-66
2021/10/13 08:16:40;;;;;;;12.80;9.47;;;15.10;99.90;;;;;;5011452;28;20254;-65
2021/10/13 08:19:05;;;;;;;7.90;7.07;;;15.00;99.90;;;;;;5007800;28;20592;-66
2021/10/13 08:21:31;;;;;;;11.03;7.50;;;15.00;99.90;;;;;;5010903;28;20221;-65
2021/10/13 08:23:56;;;;;;;7.73;6.80;;;15.60;99.90;;;;;;5011345;28;20528;-66
2021/10/13 08:26:22;;;;;;;7.00;6.40;;;16.90;99.90;;;;;;5008506;28;20194;-66
2021/10/13 08:28:47;;;;;;;8.00;7.40;;;18.20;99.90;;;;;;5007668;28;20206;-67
2021/10/13 08:31:14;;;;;;;7.97;7.20;;;18.90;99.90;;;;;;5011161;28;20187;-66
2021/10/13 08:33:40;;;;;;;8.03;6.60;;;19.50;99.90;;;;;;5011823;28;20182;-65
2021/10/13 08:36:06;;;;;;;6.40;5.90;;;20.00;99.90;;;;;;5010090;28;20441;-66
2021/10/13 08:38:32;;;;;;;7.20;5.37;;;20.70;99.90;;;;;;5007538;28;20473;-66
2021/10/13 08:40:57;;;;;;;7.57;5.10;;;21.60;95.50;;;;;;5010904;28;20266;-67
2021/10/13 08:43:23;;;;;;;7.50;4.40;;;21.90;95.20;;;;;;5011181;28;20217;-67
2021/10/13 08:45:49;;;;;;;7.67;4.90;;;22.20;93.20;;;;;;5011388;28;20175;-66
2021/10/13 08:48:14;;;;;;;6.50;5.63;;;21.90;91.00;;;;;;5010091;28;20209;-69
2021/10/13 08:50:40;;;;;;;4.00;3.20;;;21.00;92.00;;;;;;5009152;28;20190;-66
2021/10/13 08:53:11;;;;;;;13.03;6.70;;;19.80;92.60;;;;;;5007290;28;20187;-67
2021/10/13 08:55:38;;;;;;;7.73;6.90;;;18.50;95.10;;;;;;5010424;28;20321;-66
2021/10/13 08:58:13;;;;;;;10.73;7.43;;;17.10;98.80;;;;;;5010994;28;20457;-66
2021/10/13 09:00:40;;;;;;;11.07;7.07;;;16.10;99.90;;;;;;5009046;28;20843;-67
2021/10/13 09:03:06;;;;;;;10.10;8.00;;;15.50;99.90;;;;;;5010904;28;20472;-66
2021/10/13 09:05:32;;;;;;;11.37;9.50;;;15.00;99.90;;;;;;5010714;28;20441;-66
2021/10/13 09:07:57;;;;;;;10.73;8.90;;;14.50;99.90;;;;;;5010915;28;20457;-67
2021/10/13 09:10:34;;;;;;;10.60;9.60;;;14.10;99.90;;;;;;5007492;28;20226;-65
2021/10/13 09:13:02;;;;;;;12.20;10.00;;;13.50;99.90;;;;;;5010546;28;20210;-67
2021/10/13 09:15:30;;;;;;;10.00;8.60;;;13.10;99.90;;;;;;5010987;28;20465;-70
2021/10/13 09:18:14;;;;;;;10.93;9.50;;;13.00;99.90;;;;;;5010888;28;21012;-65
2021/10/13 09:20:41;;;;;;;14.40;11.70;;;12.90;99.90;;;;;;5008901;28;20444;-65
2021/10/13 09:23:30;;;;;;;11.00;9.10;;;13.10;99.90;;;;;;5010397;28;20469;-67
2021/10/13 09:26:06;;;;;;;13.37;11.67;;;13.10;99.90;;;;;;5009903;28;20430;-65
2021/10/13 09:28:32;;;;;;;14.90;11.60;;;13.20;99.90;;;;;;5007850;28;20543;-65
2021/10/13 09:31:15;;;;;;;12.60;10.70;;;12.80;99.90;;;;;;5014117;28;20521;-66
2021/10/13 09:33:59;;;;;;;13.33;10.90;;;12.80;99.90;;;;;;5014811;28;20179;-64
2021/10/13 09:36:33;;;;;;;12.00;10.30;;;12.80;99.90;;;;;;5014198;28;20869;-65
2021/10/13 09:39:14;;;;;;;15.13;11.43;;;12.60;99.90;;;;;;5011337;28;20472;-67
2021/10/13 09:42:09;;;;;;;15.27;11.93;;;12.50;99.90;;;;;;5012982;28;20504;-65
2021/10/13 09:44:56;;;;;;;12.13;10.83;;;12.90;99.90;;;;;;5005198;28;20756;-65
2021/10/13 09:47:31;;;;;;;12.67;9.93;;;13.40;99.90;;;;;;5013966;28;20467;-65
2021/10/13 09:49:57;;;;;;;12.23;10.90;;;14.40;99.90;;;;;;5011415;28;20433;-65
2021/10/13 09:52:27;;;;;;;10.90;8.90;;;15.20;99.90;;;;;;5011685;28;20934;-66
2021/10/13 09:55:03;;;;;;;10.13;8.13;;;17.70;99.90;;;;;;5011978;28;21012;-65
2021/10/13 09:57:31;;;;;;;5.23;4.73;;;18.60;99.90;;;;;;5011203;28;20957;-66
2021/10/13 10:00:11;;;;;;;6.90;6.20;;;20.90;99.90;;;;;;5009259;28;20432;-66
2021/10/13 10:02:50;;;;;;;9.20;6.70;;;22.00;96.30;;;;;;5013879;28;20468;-66
2021/10/13 10:05:33;;;;;;;6.00;5.00;;;22.10;93.80;;;;;;5014071;28;20426;-65
2021/10/13 10:08:07;;;;;;;8.80;8.03;;;21.20;94.30;;;;;;5013875;28;20456;-67
2021/10/13 10:10:35;;;;;;;9.10;5.80;;;21.60;94.10;;;;;;5009420;28;20803;-68
2021/10/13 10:13:07;;;;;;;6.33;3.93;;;22.30;93.70;;;;;;5011890;28;20433;-66
2021/10/13 10:15:36;;;;;;;5.63;4.97;;;23.80;87.70;;;;;;5013896;28;20935;-65
2021/10/13 10:18:23;;;;;;;9.03;5.30;;;24.60;83.80;;;;;;5013133;28;20461;-65
2021/10/13 10:20:49;;;;;;;18.37;11.13;;;22.90;83.00;;;;;;5012653;28;20438;-65
2021/10/13 10:23:32;;;;;;;8.93;5.20;;;22.60;86.00;;;;;;5012872;28;20469;-66
2021/10/13 10:26:19;;;;;;;8.60;6.20;;;21.60;86.80;;;;;;5020756;28;20845;-71
2021/10/13 10:28:51;;;;;;;8.57;7.17;;;21.30;91.40;;;;;;4995437;28;20465;-71
2021/10/13 10:31:28;;;;;;;5.90;4.50;;;22.10;90.10;;;;;;5013214;28;20433;-71
2021/10/13 10:34:03;;;;;;;6.20;5.03;;;22.50;86.50;;;;;;5013369;28;20436;-71
2021/10/13 10:36:35;;;;;;;5.47;4.97;;;24.20;79.80;;;;;;5008879;28;20470;-71
2021/10/13 10:39:08;;;;;;;9.50;4.30;;;24.20;75.90;;;;;;5001259;28;20528;-66
2021/10/13 10:41:54;;;;;;;4.20;3.63;;;24.00;75.60;;;;;;5011509;28;20961;-67
2021/10/13 10:44:33;;;;;;;5.00;4.50;;;22.90;79.10;;;;;;5008285;28;20440;-67
2021/10/13 10:47:00;;;;;;;5.20;4.80;;;19.70;84.90;;;;;;5015595;28;20428;-66
2021/10/13 10:49:47;;;;;;;8.20;5.60;;;18.60;90.20;;;;;;5016466;28;20464;-65
2021/10/13 10:52:21;;;;;;;8.83;5.80;;;17.70;92.80;;;;;;5013523;28;20429;-65
2021/10/13 10:55:05;;;;;;;9.03;7.00;;;16.60;94.80;;;;;;5012988;28;20540;-64
2021/10/13 10:57:33;;;;;;;10.37;5.40;;;16.00;97.20;;;;;;5013118;28;20433;-65
2021/10/13 11:00:00;;;;;;;5.27;4.77;;;15.40;98.80;;;;;;5008849;28;20561;-67
2021/10/13 11:02:26;;;;;;;7.03;5.23;;;15.10;99.90;;;;;;5012473;28;20473;-66
2021/10/13 11:05:08;;;;;;;6.67;4.80;;;14.80;99.90;;;;;;5011606;28;20882;-65
2021/10/13 11:07:33;;;;;;;6.60;5.27;;;14.70;99.90;;;;;;5008795;28;20202;-65
2021/10/13 11:10:10;;;;;;;7.20;4.07;;;14.50;99.90;;;;;;5008911;28;20438;-66
2021/10/13 11:12:49;;;;;;;5.73;4.50;;;14.50;99.90;;;;;;5012769;28;20216;-67
2021/10/13 11:15:16;;;;;;;14.70;7.10;;;14.60;99.90;;;;;;5006634;28;20850;-67
2021/10/13 11:17:42;;;;;;;9.13;6.57;;;14.60;99.90;;;;;;5011930;28;20477;-66
2021/10/13 11:20:15;;;;;;;7.60;5.93;;;15.10;99.90;;;;;;5005531;28;20488;-66
2021/10/13 11:22:41;;;;;;;12.43;6.77;;;16.80;99.90;;;;;;5010828;28;20206;-67
2021/10/13 11:25:19;;;;;;;8.80;6.90;;;20.30;98.80;;;;;;5012506;28;20433;-67
2021/10/13 11:28:05;;;;;;;8.47;7.13;;;23.20;91.90;;;;;;5011840;28;20864;-67
2021/10/13 11:30:37;;;;;;;5.63;4.90;;;23.70;84.50;;;;;;5008117;28;20508;-66
2021/10/13 11:33:05;;;;;;;5.10;4.60;;;23.50;83.80;;;;;;5011987;28;20430;-67
2021/10/13 11:35:31;;;;;;;4.93;4.40;;;25.10;78.50;;;;;;5011959;28;20464;-67
2021/10/13 11:37:57;;;;;;;3.13;2.77;;;27.30;70.40;;;;;;5031367;28;20595;-67
2021/10/13 11:40:23;;;;;;;2.57;2.10;;;28.00;62.90;;;;;;5010121;28;20251;-67
2021/10/13 11:42:49;;;;;;;4.77;3.47;;;30.20;55.50;;;;;;5012125;28;20457;-67
2021/10/13 11:45:18;;;;;;;4.40;3.40;;;28.00;55.10;;;;;;5011345;28;20649;-67
2021/10/13 11:47:43;;;;;;;4.27;3.70;;;25.70;57.10;;;;;;5012056;28;20458;-67
2021/10/13 11:50:11;;;;;;;4.47;4.07;;;23.40;60.60;;;;;;5008250;28;20940;-66
2021/10/13 11:52:40;;;;;;;5.90;4.10;;;20.40;68.30;;;;;;5010488;28;21964;-66
2021/10/13 11:55:07;;;;;;;3.93;3.60;;;18.40;78.00;;;;;;5012239;28;20433;-66
2021/10/13 11:57:34;;;;;;;2.23;2.13;;;17.50;85.90;;;;;;5010329;28;20517;-67
2021/10/13 12:00:21;;;;;;;4.37;2.30;;;16.40;91.20;;;;;;5003327;28;20445;-66
2021/10/13 12:03:04;;;;;;;3.60;2.47;;;15.20;96.40;;;;;;5011679;28;20986;-65
2021/10/13 12:05:36;;;;;;;3.13;1.90;;;15.00;98.80;;;;;;5010818;28;20469;-66
2021/10/13 12:08:07;;;;;;;2.40;1.37;;;14.70;99.90;;;;;;5011021;28;20454;-66
2021/10/13 12:10:38;;;;;;;1.50;1.23;;;14.60;99.90;;;;;;5008448;28;20445;-66
2021/10/13 12:13:07;;;;;;;1.57;1.47;;;14.30;99.90;;;;;;5009649;28;20433;-66
2021/10/13 12:15:32;;;;;;;1.43;1.23;;;14.50;99.90;;;;;;5011190;28;20807;-67
2021/10/13 12:18:08;;;;;;;1.90;1.80;;;14.70;99.90;;;;;;5011210;28;20484;-66
2021/10/13 12:20:33;;;;;;;1.40;1.30;;;14.70;99.90;;;;;;5008049;28;20182;-65
2021/10/13 12:23:12;;;;;;;1.40;1.30;;;14.20;99.90;;;;;;5010817;28;20461;-66
2021/10/13 12:25:37;;;;;;;2.43;1.90;;;14.60;99.90;;;;;;5011634;28;20610;-65
2021/10/13 12:28:12;;;;;;;1.13;1.10;;;14.90;99.90;;;;;;5010962;28;20481;-67
2021/10/13 12:30:38;;;;;;;3.17;2.20;;;14.90;99.90;;;;;;5009574;28;20182;-65
2021/10/13 12:33:15;;;;;;;1.80;1.70;;;15.50;99.90;;;;;;5008946;28;20426;-65
2021/10/13 12:35:41;;;;;;;4.70;1.93;;;16.70;99.80;;;;;;5007645;28;20179;-66
2021/10/13 12:38:16;;;;;;;2.53;1.33;;;19.60;93.40;;;;;;5011172;28;21040;-66
2021/10/13 12:41:10;;;;;;;1.57;1.40;;;23.30;88.00;;;;;;5009117;28;20484;-67
2021/10/13 12:44:15;;;;;;;1.60;1.50;;;26.10;67.80;;;;;;5012904;28;20482;-67
2021/10/13 12:46:51;;;;;;;4.40;3.37;;;28.70;57.90;;;;;;4987242;28;20959;-67
2021/10/13 12:49:18;;;;;;;2.60;1.70;;;29.10;53.90;;;;;;5002045;28;20457;-68
2021/10/13 12:51:53;;;;;;;3.87;1.47;;;31.00;49.40;;;;;;5010377;28;20429;-67
2021/10/13 12:54:19;;;;;;;1.80;1.43;;;30.10;47.30;;;;;;5011327;28;20539;-68
2021/10/13 12:56:45;;;;;;;1.73;1.47;;;31.10;46.50;;;;;;5011302;28;20426;-65